Flight Track Log - Related Links

Times and Time Zones

All times are in EDT time to prevent confusion due to time zone crossing. See the SWA3135 flight status page for this flight to view local times or setup timezone preferences in your user account.

Time Position Orientation Groundspeed Altitude Reporting Facility
EDT Latitude Longitude Course Direction KTS MPH feet Rate Location/Type
Sat 05:23:10 PM 36.0767 -115.1706 268° West 170 196 3,300  Level Los Angeles Center
Sat 05:23:38 PM 36.0758 -115.1967 268° West 173 199 4,100 1,714 Climbing Los Angeles Center
Sat 05:23:52 PM 36.0753 -115.2136 268° West 189 217 4,500 2,419 Climbing Los Angeles Center
Sat 05:24:40 PM 36.0564 -115.2606 244° Southwest 207 238 6,600 2,836 Climbing Los Angeles Center
Sat 05:25:42 PM 35.9894 -115.2919 201° Southwest 249 287 9,700 2,613 Climbing Los Angeles Center
Sat 05:26:44 PM 35.9286 -115.3533 219° Southwest 299 344 12,000 2,855 Climbing Los Angeles Center
Sat 05:27:46 PM 35.8869 -115.4544 243° Southwest 325 374 15,600 3,048 Climbing Los Angeles Center
Sat 05:28:48 PM 35.8886 -115.5708 271° West 337 388 18,300 2,468 Climbing Los Angeles Center
Sat 05:29:50 PM 35.8906 -115.6956 271° West 362 417 20,700 2,371 Climbing Los Angeles Center
Sat 05:30:52 PM 35.8931 -115.8375 271° West 385 443 23,200 2,323 Climbing Los Angeles Center
Sat 05:31:54 PM 35.9203 -115.9550 286° West 399 459 25,500 2,226 Climbing Los Angeles Center
Sat 05:32:56 PM 36.0181 -116.0756 315° West 424 488 27,800 2,419 Climbing Los Angeles Center
Sat 05:33:58 PM 36.1036 -116.1794 316° Northwest 428 493 30,500 2,032 Climbing Los Angeles Center
Sat 05:35:00 PM 36.1889 -116.2833 316° Northwest 426 490 32,000 726 Climbing Los Angeles Center
Sat 05:36:02 PM 36.2711 -116.3836 315° West 421 484 32,000  Level Los Angeles Center
Sat 05:37:05 PM 36.3531 -116.4842 315° West 417 480 32,000  Level Los Angeles Center
Sat 05:38:07 PM 36.4339 -116.5833 315° West 415 478 32,000  Level Los Angeles Center
Sat 05:39:09 PM 36.5164 -116.6842 316° Northwest 415 478 32,000  Level Los Angeles Center
Sat 05:40:11 PM 36.6219 -116.8000 319° Northwest 419 482 32,000  Level Los Angeles Center
Sat 05:41:13 PM 36.6697 -116.9214 296° West 401 461 32,000  Level Los Angeles Center
Sat 05:42:15 PM 36.7136 -117.0492 293° West 400 460 32,000  Level Los Angeles Center
Sat 05:43:17 PM 36.7575 -117.1775 293° West 401 461 32,000  Level Los Angeles Center
Sat 05:44:19 PM 36.8019 -117.3108 293° West 401 461 32,000  Level Los Angeles Center
Sat 05:45:21 PM 36.8461 -117.4403 293° West 401 461 32,000  Level Los Angeles Center
Sat 05:46:23 PM 36.8894 -117.5719 292° West 406 467 32,000  Level Los Angeles Center
Sat 05:47:15 PM 36.9322 -117.7033 292° West 406 467 32,000  Level Oakland Center
Sat 05:48:16 PM 36.9758 -117.8331 293° West 405 466 32,000  Level Oakland Center
Sat 05:49:17 PM 37.0178 -117.9603 292° West 401 461 32,000  Level Oakland Center
Sat 05:50:18 PM 37.0597 -118.0900 292° West 401 461 32,000  Level Oakland Center
Sat 05:51:19 PM 37.1031 -118.2219 292° West 406 467 32,000  Level Oakland Center
Sat 05:52:21 PM 37.1442 -118.3489 292° West 397 457 32,000  Level Oakland Center
Sat 05:53:22 PM 37.1833 -118.4761 291° West 399 459 32,000 -443 Level Oakland Center
Sat 05:54:23 PM 37.2272 -118.6097 292° West 414 476 31,100 -1,033 Descending Oakland Center
Sat 05:55:24 PM 37.2764 -118.7636 292° West 400 460 29,900 -541 Descending Oakland Center
Sat 05:56:25 PM 37.3156 -118.8919 291° West 396 456 30,000 49 Climbing Oakland Center
Sat 05:57:27 PM 37.3561 -119.0167 292° West 392 451 30,000  Level Oakland Center
Sat 05:58:28 PM 37.3972 -119.1447 292° West 393 452 30,000  Level Oakland Center
Sat 05:59:29 PM 37.4364 -119.2725 291° West 393 452 30,000  Level Oakland Center
Sat 06:00:30 PM 37.4775 -119.4003 292° West 394 453 30,000  Level Oakland Center
Sat 06:01:32 PM 37.5222 -119.5464 291° West 395 455 30,000  Level Oakland Center
Sat 06:02:33 PM 37.5614 -119.6764 291° West 396 456 30,000  Level Oakland Center
Sat 06:03:34 PM 37.6028 -119.8047 292° West 396 456 30,000 -393 Level Oakland Center
Sat 06:04:35 PM 37.6414 -119.9347 291° West 396 456 29,200 -885 Descending Oakland Center
Sat 06:05:36 PM 37.6808 -120.0633 291° West 395 455 28,200 -927 Descending Oakland Center
Sat 06:06:38 PM 37.7211 -120.1922 292° West 395 455 27,300 -927 Descending Oakland Center
Sat 06:07:39 PM 37.7594 -120.3242 290° West 395 455 26,300 -639 Descending Oakland Center
Sat 06:08:40 PM 37.8011 -120.4564 292° West 401 461 26,000 -689 Descending Oakland Center
Sat 06:09:41 PM 37.8406 -120.5908 290° West 402 463 24,900 -1,366 Descending Oakland Center
Sat 06:10:43 PM 37.8622 -120.7244 282° West 392 451 23,200 -2,098 Descending Oakland Center
Sat 06:11:44 PM 37.8547 -120.8533 266° West 371 427 20,600 -2,508 Descending Oakland Center
Sat 06:12:45 PM 37.8458 -120.9786 265° West 360 414 18,100 -2,607 Descending Oakland Center
Sat 06:13:46 PM 37.8369 -121.1206 266° West 342 394 15,300 -2,586 Descending Oakland Center
Sat 06:14:41 PM 37.8167 -121.2167 255° West 376 433 13,100 -1,636 Descending Northern Cal TRACON
Sat 06:15:47 PM 37.7667 -121.3333 242° Southwest 333 383 12,000 -1,150 Descending Northern Cal TRACON
Sat 06:16:41 PM 37.7333 -121.4333 247° West 318 366 10,800 -950 Descending Northern Cal TRACON
Sat 06:17:47 PM 37.7000 -121.5500 250° West 296 341 10,100 -850 Descending Northern Cal TRACON
Sat 06:18:41 PM 37.6667 -121.6167 238° Southwest 271 312 9,100 -1,105 Descending Northern Cal TRACON
Sat 06:19:41 PM 37.6500 -121.7000 256° West 263 303 8,000 -850 Descending Northern Cal TRACON
Sat 06:20:41 PM 37.6167 -121.7833 243° Southwest 230 265 7,400 -850 Descending Northern Cal TRACON
Sat 06:21:41 PM 37.5833 -121.8500 238° Southwest 216 249 6,300 -1,100 Descending Northern Cal TRACON
Sat 06:22:41 PM 37.5667 -121.9167 253° West 218 251 5,200 -1,100 Descending Northern Cal TRACON
Sat 06:23:41 PM 37.5500 -121.9833 253° West 219 252 4,100 -850 Descending Northern Cal TRACON
Sat 06:24:41 PM 37.5833 -122.0500 302° West 208 239 3,500 -789 Descending Northern Cal TRACON
Sat 06:25:35 PM 37.6167 -122.1000 310° West 194 223 2,600 -895 Descending Northern Cal TRACON
Sat 06:26:35 PM 37.6500 -122.1333 322° Northwest 141 162 1,800 -750 Descending Northern Cal TRACON
Sat 06:27:35 PM 37.6667 -122.1667 302° West 127 146 1,100 -700 Descending Northern Cal TRACON
Sat 06:28:35 PM 37.7000 -122.2000 322° Northwest 130 150 400 -700 Descending Northern Cal TRACON
Sat 06:31:00 PM 37.7167 -122.2167 270° West  Level FlightAware Approximate

Login

Don't have an account? Register now (free) for customized features, flight alerts, and more!